createdAt,value
2019-05-16T00:00:02.285Z,543.0000
2019-05-16T00:00:15.275Z,537.0000
2019-05-16T00:00:22.282Z,536.0000
2019-05-16T00:00:33.279Z,538.0000
2019-05-16T00:00:42.285Z,535.0000
2019-05-16T00:00:53.290Z,543.0000
2019-05-16T00:01:02.302Z,547.0000
2019-05-16T00:01:13.293Z,552.0000
2019-05-16T00:01:22.273Z,535.0000
2019-05-16T00:01:33.278Z,550.0000
2019-05-16T00:01:43.229Z,551.0000
2019-05-16T00:01:52.502Z,564.0000
2019-05-16T00:02:03.279Z,545.0000
2019-05-16T00:02:13.291Z,538.0000
2019-05-16T00:02:25.252Z,552.0000
2019-05-16T00:02:34.748Z,539.0000
2019-05-16T00:02:44.320Z,549.0000
2019-05-16T00:02:52.291Z,551.0000
2019-05-16T00:03:04.271Z,546.0000
2019-05-16T00:03:12.276Z,544.0000
2019-05-16T00:03:23.280Z,535.0000
2019-05-16T00:03:32.281Z,543.0000
2019-05-16T00:03:43.309Z,532.0000
2019-05-16T00:03:52.297Z,540.0000
2019-05-16T00:04:03.290Z,546.0000
2019-05-16T00:04:12.286Z,541.0000
2019-05-16T00:04:23.296Z,554.0000
2019-05-16T00:04:32.288Z,550.0000
2019-05-16T00:04:43.300Z,543.0000
2019-05-16T00:04:52.280Z,536.0000
2019-05-16T00:05:02.818Z,541.0000
2019-05-16T00:05:12.283Z,561.0000
2019-05-16T00:05:23.302Z,554.0000
2019-05-16T00:05:33.281Z,559.0000
2019-05-16T00:05:53.261Z,547.0000
2019-05-16T00:05:54.522Z,563.0000
2019-05-16T00:06:04.141Z,536.0000
2019-05-16T00:06:17.954Z,545.0000
2019-05-16T00:06:23.294Z,550.0000
2019-05-16T00:06:34.283Z,557.0000
2019-05-16T00:06:42.278Z,558.0000
2019-05-16T00:06:54.271Z,549.0000
2019-05-16T00:07:02.288Z,545.0000
2019-05-16T00:07:13.285Z,545.0000
2019-05-16T00:07:22.295Z,541.0000
2019-05-16T00:07:33.277Z,552.0000
2019-05-16T00:07:42.299Z,563.0000
2019-05-16T00:07:53.305Z,551.0000
2019-05-16T00:08:02.296Z,552.0000
2019-05-16T00:08:13.297Z,555.0000
2019-05-16T00:08:22.276Z,552.0000
2019-05-16T00:08:33.287Z,559.0000
2019-05-16T00:08:42.276Z,557.0000
2019-05-16T00:08:53.300Z,550.0000
2019-05-16T00:09:02.280Z,559.0000
2019-05-16T00:09:14.293Z,559.0000
2019-05-16T00:09:22.279Z,552.0000
2019-05-16T00:09:32.195Z,552.0000
2019-05-16T00:09:42.322Z,559.0000
2019-05-16T00:09:52.496Z,561.0000
2019-05-16T00:10:03.203Z,545.0000
2019-05-16T00:10:13.289Z,565.0000
2019-05-16T00:10:22.267Z,559.0000
2019-05-16T00:10:33.290Z,559.0000
2019-05-16T00:10:45.224Z,557.0000
2019-05-16T00:10:53.270Z,557.0000
2019-05-16T00:11:04.292Z,561.0000
2019-05-16T00:11:12.288Z,560.0000
2019-05-16T00:11:24.268Z,566.0000
2019-05-16T00:11:32.277Z,557.0000
2019-05-16T00:11:43.299Z,557.0000
2019-05-16T00:11:52.274Z,565.0000
2019-05-16T00:12:03.295Z,561.0000
2019-05-16T00:12:12.292Z,559.0000
2019-05-16T00:12:23.284Z,568.0000
2019-05-16T00:12:32.308Z,552.0000
2019-05-16T00:12:43.284Z,568.0000
2019-05-16T00:12:52.290Z,549.0000
2019-05-16T00:13:03.295Z,560.0000
2019-05-16T00:13:12.292Z,557.0000
2019-05-16T00:13:23.294Z,547.0000
2019-05-16T00:13:33.279Z,538.0000
2019-05-16T00:13:43.291Z,551.0000
2019-05-16T00:13:52.296Z,547.0000
2019-05-16T00:14:03.276Z,563.0000
2019-05-16T00:14:12.295Z,545.0000
2019-05-16T00:14:23.295Z,553.0000
2019-05-16T00:14:32.305Z,550.0000
2019-05-16T00:14:43.295Z,555.0000
2019-05-16T00:14:53.201Z,557.0000
2019-05-16T00:15:03.293Z,549.0000
2019-05-16T00:15:12.284Z,559.0000
2019-05-16T00:15:24.168Z,560.0000
2019-05-16T00:15:34.294Z,546.0000
2019-05-16T00:15:43.274Z,550.0000
2019-05-16T00:15:55.033Z,557.0000
2019-05-16T00:16:02.292Z,553.0000
2019-05-16T00:16:14.255Z,564.0000
2019-05-16T00:16:22.276Z,569.0000
2019-05-16T00:16:33.274Z,566.0000
2019-05-16T00:16:42.306Z,559.0000
2019-05-16T00:16:51.794Z,574.0000
2019-05-16T00:17:02.286Z,568.0000
2019-05-16T00:17:13.286Z,572.0000
2019-05-16T00:17:28.417Z,577.0000
2019-05-16T00:17:33.289Z,580.0000
2019-05-16T00:17:42.277Z,566.0000
2019-05-16T00:17:53.286Z,585.0000
2019-05-16T00:18:02.300Z,570.0000
2019-05-16T00:18:13.315Z,573.0000
2019-05-16T00:18:23.300Z,553.0000
2019-05-16T00:18:33.264Z,554.0000
2019-05-16T00:18:42.297Z,566.0000
2019-05-16T00:18:53.284Z,552.0000
2019-05-16T00:19:02.326Z,559.0000
2019-05-16T00:19:12.255Z,556.0000
2019-05-16T00:19:22.289Z,567.0000
2019-05-16T00:19:32.138Z,559.0000
2019-05-16T00:19:42.280Z,563.0000
2019-05-16T00:19:53.296Z,550.0000
2019-05-16T00:20:02.292Z,550.0000
2019-05-16T00:20:14.216Z,566.0000
2019-05-16T00:20:24.284Z,561.0000
2019-05-16T00:20:33.321Z,560.0000
2019-05-16T00:20:45.211Z,547.0000
2019-05-16T00:20:52.287Z,559.0000
2019-05-16T00:21:04.284Z,567.0000
2019-05-16T00:21:18.007Z,559.0000
2019-05-16T00:21:24.253Z,549.0000
2019-05-16T00:21:32.289Z,559.0000
2019-05-16T00:21:43.271Z,560.0000
2019-05-16T00:21:52.307Z,555.0000
2019-05-16T00:22:03.280Z,551.0000
2019-05-16T00:22:18.033Z,557.0000
2019-05-16T00:22:23.285Z,568.0000
2019-05-16T00:22:32.281Z,571.0000
2019-05-16T00:22:48.397Z,561.0000
2019-05-16T00:22:52.266Z,567.0000
2019-05-16T00:23:07.783Z,548.0000
2019-05-16T00:23:12.283Z,554.0000
2019-05-16T00:23:23.288Z,561.0000
2019-05-16T00:23:32.295Z,561.0000
2019-05-16T00:23:48.581Z,554.0000
2019-05-16T00:23:52.285Z,547.0000
2019-05-16T00:24:02.331Z,557.0000
2019-05-16T00:24:12.284Z,557.0000
2019-05-16T00:24:23.294Z,547.0000
2019-05-16T00:24:32.295Z,567.0000
2019-05-16T00:24:43.301Z,557.0000
2019-05-16T00:24:53.769Z,561.0000
2019-05-16T00:25:03.291Z,562.0000
2019-05-16T00:25:13.329Z,550.0000
2019-05-16T00:25:23.276Z,558.0000
2019-05-16T00:25:32.284Z,565.0000
2019-05-16T00:25:43.306Z,552.0000
2019-05-16T00:25:53.325Z,571.0000
2019-05-16T00:26:03.279Z,559.0000
2019-05-16T00:26:15.768Z,564.0000
2019-05-16T00:26:28.053Z,551.0000
2019-05-16T00:26:35.373Z,550.0000
2019-05-16T00:26:43.295Z,559.0000
2019-05-16T00:26:55.113Z,550.0000
2019-05-16T00:27:03.271Z,546.0000
2019-05-16T00:27:14.283Z,557.0000
2019-05-16T00:27:22.296Z,552.0000
2019-05-16T00:27:35.283Z,566.0000
2019-05-16T00:27:42.275Z,564.0000
2019-05-16T00:27:53.280Z,566.0000
2019-05-16T00:28:02.264Z,559.0000
2019-05-16T00:28:13.290Z,559.0000
2019-05-16T00:28:23.809Z,575.0000
2019-05-16T00:28:33.275Z,561.0000
2019-05-16T00:28:42.296Z,565.0000
2019-05-16T00:28:53.290Z,555.0000
2019-05-16T00:29:02.377Z,561.0000
2019-05-16T00:29:13.290Z,560.0000
2019-05-16T00:29:22.290Z,563.0000
2019-05-16T00:29:33.277Z,561.0000
2019-05-16T00:29:42.296Z,568.0000
2019-05-16T00:29:53.281Z,564.0000
2019-05-16T00:30:02.273Z,557.0000
2019-05-16T00:30:13.301Z,567.0000
2019-05-16T00:30:22.279Z,564.0000
2019-05-16T00:30:33.312Z,563.0000
2019-05-16T00:30:42.287Z,562.0000
2019-05-16T00:30:53.281Z,554.0000
2019-05-16T00:31:02.295Z,558.0000
2019-05-16T00:31:12.496Z,564.0000
2019-05-16T00:31:22.291Z,560.0000
2019-05-16T00:31:34.205Z,557.0000
2019-05-16T00:31:42.307Z,558.0000
2019-05-16T00:31:53.351Z,568.0000
2019-05-16T00:32:04.288Z,570.0000
2019-05-16T00:32:14.169Z,572.0000
2019-05-16T00:32:24.294Z,557.0000
2019-05-16T00:32:32.310Z,566.0000
2019-05-16T00:32:44.264Z,561.0000
2019-05-16T00:32:52.300Z,552.0000
2019-05-16T00:33:03.281Z,562.0000
2019-05-16T00:33:12.296Z,561.0000
2019-05-16T00:33:23.279Z,554.0000
2019-05-16T00:33:32.276Z,574.0000
2019-05-16T00:33:43.292Z,570.0000
2019-05-16T00:33:52.315Z,566.0000
2019-05-16T00:34:03.341Z,553.0000
2019-05-16T00:34:12.293Z,574.0000
2019-05-16T00:34:23.294Z,579.0000
2019-05-16T00:34:32.264Z,572.0000
2019-05-16T00:34:43.387Z,568.0000
2019-05-16T00:34:52.273Z,568.0000
2019-05-16T00:35:03.279Z,569.0000
2019-05-16T00:35:12.295Z,576.0000
2019-05-16T00:35:21.791Z,563.0000
2019-05-16T00:35:32.283Z,565.0000
2019-05-16T00:35:43.271Z,577.0000
2019-05-16T00:36:02.578Z,570.0000
2019-05-16T00:36:05.930Z,576.0000
2019-05-16T00:36:12.284Z,579.0000
2019-05-16T00:36:27.825Z,589.0000
2019-05-16T00:36:32.277Z,592.0000
2019-05-16T00:36:43.306Z,593.0000
2019-05-16T00:36:53.835Z,578.0000
2019-05-16T00:37:03.284Z,584.0000
2019-05-16T00:37:14.299Z,585.0000
2019-05-16T00:37:24.457Z,586.0000
2019-05-16T00:37:35.168Z,570.0000
2019-05-16T00:37:42.294Z,574.0000
2019-05-16T00:37:54.279Z,559.0000
2019-05-16T00:38:02.286Z,565.0000
2019-05-16T00:38:13.291Z,566.0000
2019-05-16T00:38:22.285Z,562.0000
2019-05-16T00:38:33.281Z,564.0000
2019-05-16T00:38:42.309Z,580.0000
2019-05-16T00:38:53.285Z,574.0000
2019-05-16T00:39:02.306Z,555.0000
2019-05-16T00:39:13.286Z,567.0000
2019-05-16T00:39:22.275Z,580.0000
2019-05-16T00:39:33.267Z,574.0000
2019-05-16T00:39:42.286Z,567.0000
2019-05-16T00:39:53.289Z,567.0000
2019-05-16T00:40:02.577Z,576.0000
2019-05-16T00:40:13.288Z,565.0000
2019-05-16T00:40:22.268Z,574.0000
2019-05-16T00:40:33.266Z,574.0000
2019-05-16T00:40:42.282Z,566.0000
2019-05-16T00:40:52.718Z,566.0000
2019-05-16T00:41:02.293Z,570.0000
2019-05-16T00:41:13.289Z,570.0000
2019-05-16T00:41:22.309Z,564.0000
2019-05-16T00:41:33.317Z,576.0000
2019-05-16T00:41:43.300Z,566.0000
2019-05-16T00:41:52.540Z,563.0000
2019-05-16T00:42:02.290Z,569.0000
2019-05-16T00:42:13.295Z,553.0000
2019-05-16T00:42:22.258Z,566.0000
2019-05-16T00:42:33.295Z,577.0000
2019-05-16T00:42:42.754Z,576.0000
2019-05-16T00:42:53.277Z,566.0000
2019-05-16T00:43:04.280Z,571.0000
2019-05-16T00:43:12.290Z,579.0000
2019-05-16T00:43:24.295Z,563.0000
2019-05-16T00:43:32.305Z,573.0000
2019-05-16T00:43:43.322Z,574.0000
2019-05-16T00:43:52.273Z,563.0000
2019-05-16T00:44:03.261Z,562.0000
2019-05-16T00:44:12.287Z,557.0000
2019-05-16T00:44:23.318Z,561.0000
2019-05-16T00:44:32.267Z,569.0000
2019-05-16T00:44:43.293Z,569.0000
2019-05-16T00:44:52.297Z,582.0000
2019-05-16T00:45:01.763Z,574.0000
2019-05-16T00:45:13.530Z,569.0000
2019-05-16T00:45:23.767Z,573.0000
2019-05-16T00:45:34.781Z,557.0000
2019-05-16T00:45:43.297Z,564.0000
2019-05-16T00:45:52.313Z,566.0000
2019-05-16T00:46:03.299Z,566.0000
2019-05-16T00:46:12.288Z,556.0000
2019-05-16T00:46:23.289Z,573.0000
2019-05-16T00:46:32.281Z,572.0000
2019-05-16T00:46:42.443Z,573.0000
2019-05-16T00:46:52.289Z,576.0000
2019-05-16T00:47:02.863Z,576.0000
2019-05-16T00:47:13.228Z,563.0000
2019-05-16T00:47:22.513Z,570.0000
2019-05-16T00:47:32.280Z,582.0000
2019-05-16T00:47:41.820Z,575.0000
2019-05-16T00:47:52.305Z,572.0000
2019-05-16T00:48:04.207Z,571.0000
2019-05-16T00:48:14.280Z,557.0000
2019-05-16T00:48:23.303Z,570.0000
2019-05-16T00:48:34.279Z,580.0000
2019-05-16T00:48:44.225Z,575.0000
2019-05-16T00:48:55.026Z,565.0000
2019-05-16T00:49:02.296Z,575.0000
2019-05-16T00:49:14.284Z,577.0000
2019-05-16T00:49:22.348Z,590.0000
2019-05-16T00:49:33.284Z,575.0000
2019-05-16T00:49:42.287Z,582.0000
2019-05-16T00:49:53.328Z,588.0000
2019-05-16T00:50:02.336Z,571.0000
2019-05-16T00:50:13.309Z,581.0000
2019-05-16T00:50:22.293Z,568.0000
2019-05-16T00:50:33.297Z,573.0000
2019-05-16T00:50:42.298Z,571.0000
2019-05-16T00:50:53.278Z,567.0000
2019-05-16T00:51:02.337Z,575.0000
2019-05-16T00:51:13.288Z,584.0000
2019-05-16T00:51:22.300Z,576.0000
2019-05-16T00:51:33.282Z,579.0000
2019-05-16T00:51:42.272Z,582.0000
2019-05-16T00:51:53.296Z,577.0000
2019-05-16T00:52:02.284Z,566.0000
2019-05-16T00:52:13.293Z,573.0000
2019-05-16T00:52:22.305Z,584.0000
2019-05-16T00:52:33.277Z,586.0000
2019-05-16T00:52:42.295Z,589.0000
2019-05-16T00:52:52.503Z,586.0000
2019-05-16T00:53:02.284Z,589.0000
2019-05-16T00:53:14.245Z,581.0000
2019-05-16T00:53:22.289Z,584.0000
2019-05-16T00:53:33.298Z,577.0000
2019-05-16T00:53:45.210Z,589.0000
2019-05-16T00:53:53.290Z,586.0000
2019-05-16T00:54:04.282Z,576.0000
2019-05-16T00:54:12.288Z,570.0000
2019-05-16T00:54:24.273Z,562.0000
2019-05-16T00:54:32.301Z,570.0000
2019-05-16T00:54:43.285Z,584.0000
2019-05-16T00:54:52.275Z,580.0000
2019-05-16T00:55:03.341Z,582.0000
2019-05-16T00:55:12.274Z,576.0000
2019-05-16T00:55:23.295Z,577.0000
2019-05-16T00:55:32.274Z,589.0000
2019-05-16T00:55:43.288Z,580.0000
2019-05-16T00:55:52.274Z,571.0000
2019-05-16T00:56:03.282Z,592.0000
2019-05-16T00:56:18.641Z,585.0000
2019-05-16T00:56:22.268Z,585.0000
2019-05-16T00:56:32.270Z,584.0000
2019-05-16T00:56:43.273Z,586.0000
2019-05-16T00:56:52.270Z,591.0000
2019-05-16T00:57:03.292Z,589.0000
2019-05-16T00:57:12.289Z,589.0000
2019-05-16T00:57:23.274Z,582.0000
2019-05-16T00:57:34.273Z,583.0000
2019-05-16T00:57:42.264Z,577.0000
2019-05-16T00:57:52.307Z,579.0000
2019-05-16T00:58:02.157Z,571.0000
2019-05-16T00:58:12.276Z,581.0000
2019-05-16T00:58:23.295Z,579.0000
2019-05-16T00:58:34.333Z,576.0000
2019-05-16T00:58:44.285Z,593.0000
2019-05-16T00:58:52.838Z,579.0000
2019-05-16T00:59:02.269Z,584.0000
2019-05-16T00:59:15.145Z,584.0000
2019-05-16T00:59:22.280Z,597.0000
2019-05-16T00:59:33.274Z,594.0000
2019-05-16T00:59:42.285Z,591.0000
2019-05-16T00:59:53.279Z,598.0000
2019-05-16T01:00:02.293Z,591.0000
2019-05-16T01:00:13.267Z,589.0000
2019-05-16T01:00:22.286Z,582.0000
2019-05-16T01:00:33.294Z,595.0000
2019-05-16T01:00:42.284Z,588.0000
2019-05-16T01:00:53.307Z,593.0000
2019-05-16T01:01:02.268Z,583.0000
2019-05-16T01:01:13.314Z,599.0000
2019-05-16T01:01:22.305Z,593.0000
2019-05-16T01:01:33.295Z,605.0000
2019-05-16T01:01:42.295Z,590.0000
2019-05-16T01:01:53.301Z,592.0000
2019-05-16T01:02:02.298Z,609.0000
2019-05-16T01:02:12.237Z,602.0000
2019-05-16T01:02:22.281Z,603.0000
2019-05-16T01:02:33.267Z,600.0000
2019-05-16T01:02:42.293Z,594.0000
2019-05-16T01:02:52.259Z,603.0000
2019-05-16T01:03:02.316Z,611.0000
2019-05-16T01:03:13.286Z,604.0000
2019-05-16T01:03:23.191Z,598.0000
2019-05-16T01:03:33.303Z,606.0000
2019-05-16T01:03:44.318Z,619.0000
2019-05-16T01:03:53.303Z,602.0000
2019-05-16T01:04:05.263Z,596.0000
2019-05-16T01:04:12.325Z,607.0000
2019-05-16T01:04:25.106Z,610.0000
2019-05-16T01:04:32.275Z,606.0000
2019-05-16T01:04:43.288Z,593.0000
2019-05-16T01:04:52.284Z,606.0000
2019-05-16T01:05:03.285Z,597.0000
2019-05-16T01:05:14.513Z,600.0000
2019-05-16T01:05:23.283Z,608.0000
2019-05-16T01:05:32.280Z,612.0000
2019-05-16T01:05:47.906Z,600.0000
2019-05-16T01:05:52.279Z,605.0000
2019-05-16T01:06:15.756Z,607.0000
2019-05-16T01:06:19.106Z,600.0000
2019-05-16T01:06:23.185Z,611.0000
2019-05-16T01:06:38.090Z,602.0000
2019-05-16T01:06:43.290Z,616.0000
2019-05-16T01:06:52.288Z,611.0000
2019-05-16T01:07:08.248Z,606.0000
2019-05-16T01:07:12.276Z,607.0000
2019-05-16T01:07:23.287Z,623.0000
2019-05-16T01:07:32.277Z,611.0000
2019-05-16T01:07:43.285Z,602.0000
2019-05-16T01:07:52.271Z,609.0000
2019-05-16T01:08:03.281Z,609.0000
2019-05-16T01:08:12.302Z,608.0000
2019-05-16T01:08:28.263Z,609.0000
2019-05-16T01:08:32.285Z,611.0000
2019-05-16T01:08:43.308Z,611.0000
2019-05-16T01:08:52.299Z,602.0000
2019-05-16T01:09:04.314Z,603.0000
2019-05-16T01:09:14.312Z,596.0000
2019-05-16T01:09:24.104Z,604.0000
2019-05-16T01:09:34.281Z,601.0000
2019-05-16T01:09:43.257Z,602.0000
2019-05-16T01:09:54.306Z,604.0000
2019-05-16T01:10:02.283Z,590.0000
2019-05-16T01:10:14.315Z,594.0000
2019-05-16T01:10:22.281Z,595.0000
2019-05-16T01:10:33.295Z,591.0000
2019-05-16T01:10:42.302Z,591.0000
2019-05-16T01:10:53.291Z,593.0000
2019-05-16T01:11:02.307Z,586.0000
2019-05-16T01:11:13.297Z,609.0000
2019-05-16T01:11:22.272Z,601.0000
2019-05-16T01:11:33.289Z,593.0000
2019-05-16T01:11:42.276Z,602.0000
2019-05-16T01:11:51.805Z,602.0000
2019-05-16T01:12:02.298Z,602.0000
2019-05-16T01:12:13.268Z,606.0000
2019-05-16T01:12:22.277Z,610.0000
2019-05-16T01:12:33.284Z,600.0000
2019-05-16T01:12:42.288Z,621.0000
2019-05-16T01:12:53.295Z,611.0000
2019-05-16T01:13:02.282Z,606.0000
2019-05-16T01:13:13.283Z,630.0000
2019-05-16T01:13:22.269Z,625.0000
2019-05-16T01:13:33.284Z,639.0000
2019-05-16T01:13:42.304Z,630.0000
2019-05-16T01:13:52.245Z,633.0000
2019-05-16T01:14:02.309Z,646.0000
2019-05-16T01:14:13.302Z,648.0000
2019-05-16T01:14:22.295Z,664.0000
2019-05-16T01:14:32.207Z,661.0000
2019-05-16T01:14:42.282Z,671.0000
2019-05-16T01:14:53.278Z,677.0000
2019-05-16T01:15:02.854Z,678.0000
2019-05-16T01:15:14.700Z,691.0000
2019-05-16T01:15:24.290Z,714.0000
2019-05-16T01:15:33.280Z,723.0000
2019-05-16T01:15:42.770Z,730.0000
2019-05-16T01:15:52.286Z,726.0000
2019-05-16T01:16:05.207Z,739.0000
2019-05-16T01:16:12.275Z,760.0000
2019-05-16T01:16:24.290Z,768.0000
2019-05-16T01:16:32.295Z,781.0000
2019-05-16T01:16:43.314Z,801.0000
2019-05-16T01:16:52.285Z,801.0000
2019-05-16T01:17:03.302Z,812.0000
2019-05-16T01:17:12.286Z,806.0000
2019-05-16T01:17:23.298Z,809.0000
2019-05-16T01:17:32.288Z,797.0000
2019-05-16T01:17:43.910Z,817.0000
2019-05-16T01:17:52.314Z,803.0000
2019-05-16T01:18:03.273Z,810.0000
2019-05-16T01:18:12.313Z,794.0000
2019-05-16T01:18:23.287Z,797.0000
2019-05-16T01:18:32.271Z,801.0000
2019-05-16T01:18:43.281Z,801.0000
2019-05-16T01:18:52.290Z,796.0000
2019-05-16T01:19:03.305Z,804.0000
2019-05-16T01:19:12.261Z,807.0000
2019-05-16T01:19:27.908Z,795.0000
2019-05-16T01:19:32.284Z,785.0000
2019-05-16T01:19:43.296Z,791.0000
2019-05-16T01:19:52.290Z,783.0000
2019-05-16T01:20:03.275Z,789.0000
2019-05-16T01:20:12.285Z,789.0000
2019-05-16T01:20:23.300Z,784.0000
2019-05-16T01:20:32.299Z,783.0000
2019-05-16T01:20:42.296Z,780.0000
2019-05-16T01:20:52.312Z,775.0000
2019-05-16T01:21:02.120Z,765.0000
2019-05-16T01:21:13.306Z,773.0000
2019-05-16T01:21:22.766Z,765.0000
2019-05-16T01:21:32.291Z,791.0000
2019-05-16T01:21:43.339Z,764.0000
2019-05-16T01:21:54.289Z,769.0000
2019-05-16T01:22:03.295Z,772.0000
2019-05-16T01:22:14.307Z,765.0000
2019-05-16T01:22:22.269Z,761.0000
2019-05-16T01:22:34.287Z,753.0000
2019-05-16T01:22:42.293Z,752.0000
2019-05-16T01:22:53.314Z,743.0000
2019-05-16T01:23:02.313Z,747.0000
2019-05-16T01:23:13.274Z,763.0000
2019-05-16T01:23:22.289Z,776.0000
2019-05-16T01:23:33.293Z,765.0000
2019-05-16T01:23:44.807Z,759.0000
2019-05-16T01:23:54.815Z,782.0000
2019-05-16T01:24:02.293Z,806.0000
2019-05-16T01:24:13.288Z,807.0000
2019-05-16T01:24:22.292Z,826.0000
2019-05-16T01:24:33.294Z,804.0000
2019-05-16T01:24:42.288Z,830.0000
2019-05-16T01:24:53.296Z,822.0000
2019-05-16T01:25:02.285Z,828.0000
2019-05-16T01:25:13.296Z,854.0000
2019-05-16T01:25:22.271Z,857.0000
2019-05-16T01:25:32.731Z,851.0000
2019-05-16T01:25:48.435Z,840.0000
2019-05-16T01:25:52.433Z,839.0000
2019-05-16T01:26:03.787Z,838.0000
2019-05-16T01:26:13.282Z,850.0000
2019-05-16T01:26:23.080Z,857.0000
2019-05-16T01:26:32.244Z,858.0000
2019-05-16T01:26:42.284Z,865.0000
2019-05-16T01:26:53.290Z,860.0000
2019-05-16T01:27:03.193Z,867.0000
2019-05-16T01:27:13.290Z,859.0000
2019-05-16T01:27:24.285Z,851.0000
2019-05-16T01:27:33.280Z,854.0000
2019-05-16T01:27:45.224Z,844.0000
2019-05-16T01:27:52.273Z,838.0000
2019-05-16T01:28:03.293Z,842.0000
2019-05-16T01:28:12.263Z,842.0000
2019-05-16T01:28:23.276Z,843.0000
2019-05-16T01:28:32.291Z,856.0000
2019-05-16T01:28:43.280Z,854.0000
2019-05-16T01:28:52.282Z,844.0000
2019-05-16T01:29:03.305Z,847.0000
2019-05-16T01:29:12.269Z,850.0000
2019-05-16T01:29:23.292Z,852.0000
2019-05-16T01:29:32.282Z,860.0000
2019-05-16T01:29:43.274Z,856.0000
2019-05-16T01:29:52.436Z,855.0000
2019-05-16T01:30:03.295Z,865.0000
2019-05-16T01:30:12.274Z,858.0000
2019-05-16T01:30:23.267Z,861.0000
2019-05-16T01:30:32.285Z,858.0000
2019-05-16T01:30:43.268Z,841.0000
2019-05-16T01:30:52.297Z,860.0000
2019-05-16T01:31:03.279Z,861.0000
2019-05-16T01:31:12.285Z,871.0000
2019-05-16T01:31:22.213Z,863.0000
2019-05-16T01:31:32.284Z,859.0000
2019-05-16T01:31:43.296Z,854.0000
2019-05-16T01:31:53.177Z,862.0000
2019-05-16T01:32:03.291Z,868.0000
2019-05-16T01:32:12.298Z,854.0000
2019-05-16T01:32:23.278Z,861.0000
2019-05-16T01:32:33.374Z,861.0000
2019-05-16T01:32:44.806Z,878.0000
2019-05-16T01:32:53.802Z,870.0000
2019-05-16T01:33:03.320Z,900.0000
2019-05-16T01:33:14.294Z,882.0000
2019-05-16T01:33:24.266Z,873.0000
2019-05-16T01:33:34.282Z,870.0000
2019-05-16T01:33:42.284Z,877.0000
2019-05-16T01:33:55.295Z,877.0000
2019-05-16T01:34:04.824Z,874.0000
2019-05-16T01:34:13.304Z,870.0000
2019-05-16T01:34:22.276Z,878.0000
2019-05-16T01:34:33.278Z,865.0000
2019-05-16T01:34:42.288Z,875.0000
2019-05-16T01:34:53.292Z,864.0000
2019-05-16T01:35:02.297Z,863.0000
2019-05-16T01:35:13.291Z,876.0000
2019-05-16T01:35:22.281Z,872.0000
2019-05-16T01:35:33.277Z,865.0000
2019-05-16T01:35:42.296Z,858.0000
2019-05-16T01:35:53.290Z,851.0000
2019-05-16T01:36:02.266Z,857.0000
2019-05-16T01:36:13.275Z,851.0000
2019-05-16T01:36:36.100Z,850.0000
2019-05-16T01:36:36.960Z,860.0000
2019-05-16T01:36:42.293Z,851.0000
2019-05-16T01:36:53.284Z,837.0000
2019-05-16T01:37:02.319Z,854.0000
2019-05-16T01:37:13.301Z,847.0000
2019-05-16T01:37:22.287Z,856.0000
2019-05-16T01:37:33.322Z,844.0000
2019-05-16T01:37:42.287Z,844.0000
2019-05-16T01:37:52.264Z,843.0000
2019-05-16T01:38:02.272Z,836.0000
2019-05-16T01:38:13.297Z,822.0000
2019-05-16T01:38:22.282Z,840.0000
2019-05-16T01:38:33.293Z,846.0000
2019-05-16T01:38:42.304Z,833.0000
2019-05-16T01:38:53.290Z,831.0000
2019-05-16T01:39:05.054Z,828.0000
2019-05-16T01:39:14.415Z,827.0000
2019-05-16T01:39:24.275Z,834.0000
2019-05-16T01:39:34.106Z,827.0000
2019-05-16T01:39:44.283Z,838.0000
2019-05-16T01:39:52.304Z,837.0000
2019-05-16T01:40:04.294Z,838.0000
2019-05-16T01:40:12.295Z,841.0000
2019-05-16T01:40:23.296Z,835.0000
2019-05-16T01:40:32.264Z,840.0000
2019-05-16T01:40:43.270Z,862.0000
2019-05-16T01:40:52.290Z,865.0000
2019-05-16T01:41:03.284Z,866.0000
2019-05-16T01:41:12.288Z,860.0000
2019-05-16T01:41:23.290Z,861.0000
2019-05-16T01:41:32.285Z,862.0000
2019-05-16T01:41:43.274Z,842.0000
2019-05-16T01:41:52.303Z,832.0000
2019-05-16T01:42:03.280Z,838.0000
2019-05-16T01:42:12.280Z,834.0000
2019-05-16T01:42:23.270Z,840.0000
2019-05-16T01:42:32.284Z,829.0000
2019-05-16T01:42:42.717Z,844.0000
2019-05-16T01:42:53.271Z,833.0000
2019-05-16T01:43:03.304Z,847.0000
2019-05-16T01:43:14.287Z,820.0000
2019-05-16T01:43:23.300Z,833.0000
2019-05-16T01:43:33.354Z,840.0000
2019-05-16T01:43:43.302Z,840.0000
2019-05-16T01:43:53.150Z,840.0000
2019-05-16T01:44:04.325Z,831.0000
2019-05-16T01:44:18.327Z,826.0000
2019-05-16T01:44:22.331Z,824.0000
2019-05-16T01:44:38.195Z,840.0000
2019-05-16T01:44:42.274Z,853.0000
2019-05-16T01:44:57.698Z,833.0000
2019-05-16T01:45:02.283Z,848.0000
2019-05-16T01:45:13.306Z,850.0000
2019-05-16T01:45:22.286Z,840.0000
2019-05-16T01:45:33.280Z,841.0000
2019-05-16T01:45:42.313Z,854.0000
2019-05-16T01:45:53.306Z,854.0000
2019-05-16T01:46:04.268Z,841.0000
2019-05-16T01:46:17.845Z,834.0000
2019-05-16T01:46:22.321Z,839.0000
2019-05-16T01:46:33.274Z,826.0000
2019-05-16T01:46:42.304Z,841.0000
2019-05-16T01:46:53.276Z,836.0000
2019-05-16T01:47:02.284Z,846.0000
2019-05-16T01:47:13.296Z,837.0000
2019-05-16T01:47:22.299Z,834.0000
2019-05-16T01:47:33.295Z,833.0000
2019-05-16T01:47:42.283Z,835.0000
2019-05-16T01:47:58.700Z,835.0000
2019-05-16T01:48:02.286Z,831.0000
2019-05-16T01:48:14.895Z,833.0000
2019-05-16T01:48:22.285Z,838.0000
2019-05-16T01:48:33.279Z,831.0000
2019-05-16T01:48:43.307Z,832.0000
2019-05-16T01:48:53.290Z,829.0000
2019-05-16T01:49:02.295Z,828.0000
2019-05-16T01:49:14.290Z,837.0000
2019-05-16T01:49:24.316Z,839.0000
2019-05-16T01:49:33.276Z,828.0000
2019-05-16T01:49:44.276Z,829.0000
2019-05-16T01:49:52.272Z,835.0000
2019-05-16T01:50:08.726Z,828.0000
2019-05-16T01:50:12.272Z,843.0000
2019-05-16T01:50:23.297Z,838.0000
2019-05-16T01:50:33.779Z,841.0000
2019-05-16T01:50:43.281Z,838.0000
2019-05-16T01:50:52.275Z,827.0000
2019-05-16T01:51:03.291Z,828.0000
2019-05-16T01:51:12.296Z,836.0000
2019-05-16T01:51:23.271Z,839.0000
2019-05-16T01:51:32.302Z,843.0000
2019-05-16T01:51:43.292Z,828.0000
2019-05-16T01:51:52.291Z,828.0000
2019-05-16T01:52:03.290Z,833.0000
2019-05-16T01:52:12.304Z,842.0000
2019-05-16T01:52:23.273Z,835.0000
2019-05-16T01:52:32.274Z,842.0000
2019-05-16T01:52:42.708Z,837.0000
2019-05-16T01:52:52.297Z,848.0000
2019-05-16T01:53:02.196Z,835.0000
2019-05-16T01:53:14.303Z,847.0000
2019-05-16T01:53:23.294Z,834.0000
2019-05-16T01:53:33.178Z,831.0000
2019-05-16T01:53:42.490Z,835.0000
2019-05-16T01:53:52.266Z,840.0000
2019-05-16T01:54:04.070Z,831.0000
2019-05-16T01:54:13.309Z,844.0000
2019-05-16T01:54:22.351Z,832.0000
2019-05-16T01:54:32.785Z,841.0000
2019-05-16T01:54:43.288Z,851.0000
2019-05-16T01:54:55.144Z,842.0000
2019-05-16T01:55:02.306Z,840.0000
2019-05-16T01:55:18.719Z,844.0000
2019-05-16T01:55:22.279Z,840.0000
2019-05-16T01:55:38.135Z,860.0000
2019-05-16T01:55:42.269Z,850.0000
2019-05-16T01:55:53.276Z,862.0000
2019-05-16T01:56:02.274Z,852.0000
2019-05-16T01:56:13.284Z,838.0000
2019-05-16T01:56:22.284Z,853.0000
2019-05-16T01:56:33.291Z,844.0000
2019-05-16T01:56:42.278Z,840.0000
2019-05-16T01:56:53.273Z,849.0000
2019-05-16T01:57:02.810Z,847.0000
2019-05-16T01:57:13.278Z,842.0000
2019-05-16T01:57:22.298Z,853.0000